Time;durP1;ratioP1;P1;durP2;ratioP2;P2;SDS_P1;SDS_P2;PMS_P1;PMS_P2;Temp;Humidity;BMP_temperature;BMP_pressure;BME280_temperature;BME280_humidity;BME280_pressure;Samples;Min_cycle;Max_cycle;Signal;HPM_P1;HPM_P2
2022/12/21 00:04:36;;;;;;;1.00;0.90;;;17.40;51.50;;;;;;10209271;28;20201;-77
2022/12/21 00:09:33;;;;;;;1.03;0.97;;;17.50;51.60;;;;;;10209115;28;20202;-77
2022/12/21 00:14:29;;;;;;;1.00;0.90;;;17.50;51.50;;;;;;10208920;28;20185;-77
2022/12/21 00:19:25;;;;;;;1.03;0.93;;;17.50;51.50;;;;;;10208639;28;20285;-77
2022/12/21 00:24:20;;;;;;;1.00;0.90;;;17.40;51.50;;;;;;10208483;28;20264;-77
2022/12/21 00:29:16;;;;;;;1.13;0.97;;;17.40;51.50;;;;;;10208193;28;20588;-77
2022/12/21 00:34:11;;;;;;;0.93;0.90;;;17.50;51.50;;;;;;10208078;28;20251;-77
2022/12/21 00:39:07;;;;;;;1.07;0.97;;;17.50;51.50;;;;;;10206794;28;20623;-77
2022/12/21 00:44:02;;;;;;;0.80;0.80;;;17.50;51.60;;;;;;10207813;28;20265;-77
2022/12/21 00:48:57;;;;;;;2.23;1.00;;;17.50;51.50;;;;;;10207614;28;20646;-77
2022/12/21 00:53:53;;;;;;;0.80;0.77;;;17.50;51.60;;;;;;10207200;28;20180;-76
2022/12/21 00:58:48;;;;;;;1.00;0.90;;;17.50;51.60;;;;;;10207887;28;20225;-77
2022/12/21 01:03:44;;;;;;;1.00;0.90;;;17.50;51.60;;;;;;10207106;28;20185;-77
2022/12/21 01:08:39;;;;;;;0.80;0.80;;;17.50;51.60;;;;;;10206885;28;20170;-77
2022/12/21 01:13:34;;;;;;;1.67;1.00;;;17.40;51.50;;;;;;10206869;28;20526;-77
2022/12/21 01:18:30;;;;;;;0.83;0.80;;;17.40;51.50;;;;;;10206478;28;20202;-77
2022/12/21 01:23:25;;;;;;;0.83;0.83;;;17.50;51.60;;;;;;10206321;28;20215;-77
2022/12/21 01:28:21;;;;;;;1.30;0.80;;;17.40;51.50;;;;;;10206091;28;20184;-77
2022/12/21 01:33:16;;;;;;;1.30;0.90;;;17.40;51.50;;;;;;10205883;28;20176;-77
2022/12/21 01:38:11;;;;;;;0.80;0.80;;;17.40;51.50;;;;;;10205687;28;20208;-77
2022/12/21 01:43:07;;;;;;;0.97;0.87;;;17.40;51.50;;;;;;10205530;28;20187;-77
2022/12/21 01:48:02;;;;;;;0.90;0.80;;;17.40;51.50;;;;;;10204587;28;20202;-77
2022/12/21 01:52:57;;;;;;;1.30;1.00;;;17.40;51.40;;;;;;10205149;28;20229;-77
2022/12/21 01:57:53;;;;;;;1.20;1.00;;;17.50;51.50;;;;;;10205345;28;20221;-77
2022/12/21 02:02:48;;;;;;;1.23;0.90;;;17.40;51.40;;;;;;10204934;28;20174;-77
2022/12/21 02:07:44;;;;;;;1.00;0.90;;;17.40;51.50;;;;;;10204046;28;20249;-77
2022/12/21 02:12:40;;;;;;;1.00;0.80;;;17.40;51.50;;;;;;10204772;28;20702;-77
2022/12/21 02:17:36;;;;;;;0.80;0.70;;;17.50;51.50;;;;;;10204226;28;20212;-77
2022/12/21 02:22:32;;;;;;;0.90;0.80;;;17.40;51.40;;;;;;10204106;28;20183;-77
2022/12/21 02:27:28;;;;;;;1.27;0.90;;;17.40;51.50;;;;;;10204256;28;20640;-77
2022/12/21 02:32:23;;;;;;;1.00;0.90;;;17.40;51.50;;;;;;10203751;28;20269;-77
2022/12/21 02:37:18;;;;;;;0.80;0.80;;;17.40;51.40;;;;;;10203537;28;20672;-77
2022/12/21 02:44:12;;;;;;;0.70;0.70;;;17.50;51.50;;;;;;10202914;28;20260;-77
2022/12/21 02:47:29;;;;;;;0.80;0.80;;;17.50;51.40;;;;;;10202610;28;20191;-77
2022/12/21 02:52:24;;;;;;;1.10;1.00;;;17.50;51.50;;;;;;10203391;28;20182;-77
2022/12/21 02:57:20;;;;;;;0.80;0.80;;;17.40;51.00;;;;;;10202610;28;20221;-77
2022/12/21 03:02:15;;;;;;;2.37;1.00;;;17.40;51.50;;;;;;10202514;28;20190;-77
2022/12/21 03:07:11;;;;;;;1.00;0.80;;;17.40;51.50;;;;;;10202769;28;20186;-77
2022/12/21 03:12:06;;;;;;;0.80;0.70;;;17.50;51.40;;;;;;10202579;28;20703;-77
2022/12/21 03:17:01;;;;;;;0.80;0.80;;;17.40;51.40;;;;;;10202447;28;20263;-77
2022/12/21 03:21:57;;;;;;;0.90;0.70;;;17.40;51.50;;;;;;10202585;28;20671;-77
2022/12/21 03:26:52;;;;;;;0.80;0.70;;;17.40;51.40;;;;;;10202271;28;20181;-77
2022/12/21 03:31:48;;;;;;;0.93;0.90;;;17.40;51.40;;;;;;10201677;28;20174;-77
2022/12/21 03:36:43;;;;;;;1.20;0.90;;;17.40;51.40;;;;;;10202134;28;20583;-77
2022/12/21 03:41:38;;;;;;;0.93;0.83;;;17.40;51.40;;;;;;10202064;28;20182;-77
2022/12/21 03:46:34;;;;;;;1.00;0.80;;;17.40;51.50;;;;;;10201973;28;20615;-77
2022/12/21 03:51:29;;;;;;;0.70;0.70;;;17.40;51.40;;;;;;10201914;28;20181;-77
2022/12/21 03:56:25;;;;;;;1.67;1.57;;;17.40;51.40;;;;;;10201100;28;20236;-77
2022/12/21 04:01:20;;;;;;;1.07;0.97;;;17.40;51.40;;;;;;10201715;28;20181;-77
2022/12/21 04:06:15;;;;;;;0.80;0.80;;;17.50;51.40;;;;;;10201800;28;20182;-77
2022/12/21 04:12:36;;;;;;;0.80;0.80;;;17.40;51.40;;;;;;10203515;28;20193;-77
2022/12/21 04:16:26;;;;;;;1.07;0.83;;;17.40;51.50;;;;;;10208087;28;20222;-77
2022/12/21 04:21:21;;;;;;;0.80;0.70;;;17.40;51.40;;;;;;10208645;28;20179;-77
2022/12/21 04:31:31;;;;;;;0.83;0.70;;;17.40;51.40;;;;;;10207842;28;20598;-77
2022/12/21 04:41:40;;;;;;;0.80;0.80;;;17.40;51.40;;;;;;10207621;28;20155;-77
2022/12/21 04:46:36;;;;;;;0.70;0.60;;;17.40;51.40;;;;;;10207230;28;20181;-77
2022/12/21 04:51:31;;;;;;;0.80;0.80;;;17.40;51.40;;;;;;10207766;28;20185;-77
2022/12/21 04:56:26;;;;;;;1.00;0.90;;;17.40;51.40;;;;;;10207417;28;20304;-77
2022/12/21 05:01:22;;;;;;;0.70;0.70;;;17.40;51.40;;;;;;10207236;28;20176;-77
2022/12/21 05:06:17;;;;;;;0.70;0.63;;;17.40;51.40;;;;;;10208090;28;20607;-77
2022/12/21 05:11:13;;;;;;;0.73;0.70;;;17.40;51.30;;;;;;10206858;28;20521;-77
2022/12/21 05:16:08;;;;;;;0.77;0.73;;;17.40;51.30;;;;;;10206785;28;20180;-76
2022/12/21 05:21:03;;;;;;;0.90;0.90;;;17.40;51.30;;;;;;10206032;28;20181;-77
2022/12/21 05:25:59;;;;;;;0.80;0.70;;;17.40;51.20;;;;;;10205292;28;20196;-76
2022/12/21 05:30:54;;;;;;;0.87;0.70;;;17.50;51.40;;;;;;10206632;28;20171;-77
2022/12/21 05:35:50;;;;;;;1.10;0.80;;;17.50;51.20;;;;;;10205893;28;20185;-76
2022/12/21 05:40:45;;;;;;;1.00;0.70;;;17.50;51.20;;;;;;10205460;28;20213;-76
2022/12/21 05:45:41;;;;;;;0.87;0.80;;;17.50;51.10;;;;;;10205173;28;20523;-76
2022/12/21 05:50:36;;;;;;;0.60;0.60;;;17.50;51.10;;;;;;10205310;28;20526;-74
2022/12/21 05:55:31;;;;;;;0.80;0.70;;;17.60;51.20;;;;;;10203921;28;20224;-74
2022/12/21 06:00:27;;;;;;;0.73;0.70;;;17.60;51.10;;;;;;10204008;28;20264;-74
2022/12/21 06:05:23;;;;;;;0.83;0.70;;;17.60;51.10;;;;;;10203859;28;20232;-74
2022/12/21 06:10:19;;;;;;;0.60;0.60;;;17.60;51.10;;;;;;10204171;28;20170;-75
2022/12/21 06:15:14;;;;;;;0.73;0.73;;;17.60;51.00;;;;;;10204088;28;20192;-75
2022/12/21 06:20:09;;;;;;;1.03;0.70;;;17.60;51.10;;;;;;10204075;28;20674;-76
2022/12/21 06:25:05;;;;;;;0.60;0.60;;;17.60;51.00;;;;;;10202267;28;20189;-76
2022/12/21 06:30:00;;;;;;;0.70;0.70;;;17.60;51.00;;;;;;10202952;28;20189;-73
2022/12/21 06:34:56;;;;;;;0.70;0.70;;;17.60;51.00;;;;;;10202291;28;20185;-74
2022/12/21 06:39:51;;;;;;;0.57;0.53;;;17.60;50.90;;;;;;10202989;28;20554;-74
2022/12/21 06:44:46;;;;;;;0.70;0.70;;;17.60;51.00;;;;;;10203152;28;20191;-74
2022/12/21 06:49:42;;;;;;;0.80;0.70;;;17.60;50.90;;;;;;10203143;28;20611;-75
2022/12/21 06:54:37;;;;;;;0.77;0.70;;;17.60;51.50;;;;;;10202630;28;20312;-78
2022/12/21 06:59:36;;;;;;;0.70;0.70;;;17.60;50.90;;;;;;10202772;28;20209;-78
2022/12/21 07:04:31;;;;;;;0.63;0.63;;;17.60;51.00;;;;;;10202540;28;20213;-78
2022/12/21 07:09:26;;;;;;;0.70;0.60;;;17.60;50.90;;;;;;10202452;28;20176;-78
2022/12/21 07:14:22;;;;;;;0.70;0.70;;;17.60;51.00;;;;;;10202381;28;20170;-78
2022/12/21 07:19:18;;;;;;;0.67;0.60;;;17.60;51.00;;;;;;10202135;28;20205;-78
2022/12/21 07:24:13;;;;;;;0.90;0.70;;;17.60;51.20;;;;;;10202056;28;20205;-79
2022/12/21 07:29:08;;;;;;;0.67;0.60;;;17.50;51.10;;;;;;10199001;28;20521;-78
2022/12/21 07:34:04;;;;;;;1.00;0.80;;;17.50;51.20;;;;;;10201560;28;20576;-77
2022/12/21 07:38:59;;;;;;;0.70;0.60;;;17.40;51.20;;;;;;10201544;28;20210;-78
2022/12/21 07:43:55;;;;;;;0.80;0.60;;;17.40;51.30;;;;;;10201988;28;20174;-78
2022/12/21 07:48:50;;;;;;;1.07;0.67;;;17.40;51.30;;;;;;10208456;28;20519;-76
2022/12/21 07:53:46;;;;;;;0.93;0.87;;;17.40;51.40;;;;;;10209898;28;20188;-75
2022/12/21 07:58:41;;;;;;;0.77;0.70;;;17.40;51.40;;;;;;10209353;28;20633;-75
2022/12/21 08:03:37;;;;;;;0.70;0.70;;;17.40;51.40;;;;;;10209379;28;20185;-74
2022/12/21 08:08:32;;;;;;;1.00;0.90;;;17.50;51.40;;;;;;10208840;28;20189;-76
2022/12/21 08:13:27;;;;;;;0.60;0.50;;;17.50;51.30;;;;;;10208684;28;20188;-73
2022/12/21 08:18:23;;;;;;;0.80;0.70;;;17.50;51.20;;;;;;10208722;28;20554;-74
2022/12/21 08:23:18;;;;;;;0.60;0.60;;;17.50;51.20;;;;;;10208395;28;20561;-75
2022/12/21 08:28:14;;;;;;;1.07;0.67;;;17.60;51.20;;;;;;10207537;28;20181;-75
2022/12/21 08:33:09;;;;;;;0.70;0.70;;;;;;;;;;10207752;28;20229;-75
2022/12/21 08:38:05;;;;;;;2.50;0.70;;;;;;;;;;10207937;28;20214;-75
2022/12/21 08:43:01;;;;;;;0.93;0.80;;;;;;;;;;10208433;28;20253;-75
2022/12/21 08:47:57;;;;;;;0.80;0.70;;;;;;;;;;10207745;28;20758;-74
2022/12/21 08:52:53;;;;;;;0.90;0.80;;;;;;;;;;10207534;28;20281;-75
2022/12/21 08:57:49;;;;;;;0.80;0.80;;;;;;;;;;10205677;28;20229;-76
2022/12/21 09:02:45;;;;;;;0.60;0.60;;;;;;;;;;10206894;28;20228;-74
2022/12/21 09:07:40;;;;;;;0.80;0.70;;;;;;;;;;10207450;28;20607;-74
2022/12/21 09:12:36;;;;;;;1.10;0.80;;;;;;;;;;10206816;28;20182;-74
2022/12/21 09:17:32;;;;;;;0.80;0.70;;;;;;;;;;10206591;28;20212;-74
2022/12/21 09:22:28;;;;;;;1.20;0.70;;;;;;;;;;10206416;28;20232;-74
2022/12/21 09:27:24;;;;;;;0.80;0.80;;;;;;;;;;10205695;28;20563;-74
2022/12/21 09:32:20;;;;;;;0.70;0.70;;;;;;;;;;10205857;28;20258;-74
2022/12/21 09:37:16;;;;;;;0.60;0.60;;;;;;;;;;10205331;28;20211;-74
2022/12/21 09:42:12;;;;;;;0.80;0.60;;;;;;;;;;10205567;28;20190;-74
2022/12/21 09:47:08;;;;;;;0.63;0.60;;;;;;;;;;10206211;28;20714;-74
2022/12/21 09:52:05;;;;;;;1.10;1.00;;;;;;;;;;10205298;28;20185;-74
2022/12/21 09:57:01;;;;;;;0.70;0.70;;;;;;;;;;10205021;28;20639;-74
2022/12/21 10:01:57;;;;;;;0.60;0.60;;;;;;;;;;10204885;28;20227;-74
2022/12/21 10:06:53;;;;;;;0.90;0.80;;;;;;;;;;10204664;28;20174;-74
2022/12/21 10:11:49;;;;;;;0.73;0.73;;;;;;;;;;10204478;28;20182;-74
2022/12/21 10:16:45;;;;;;;0.70;0.70;;;;;;;;;;10204163;28;20204;-75
2022/12/21 10:21:41;;;;;;;0.60;0.60;;;;;;;;;;10204472;28;20232;-74
2022/12/21 10:26:37;;;;;;;1.10;0.70;;;;;;;;;;10176113;28;20330;-74
2022/12/21 10:31:33;;;;;;;0.73;0.70;;;;;;;;;;10203564;28;20185;-74
2022/12/21 10:36:29;;;;;;;0.70;0.70;;;;;;;;;;10204661;28;20271;-74
2022/12/21 10:41:25;;;;;;;0.70;0.70;;;;;;;;;;10203293;28;20208;-74
2022/12/21 10:46:21;;;;;;;1.00;0.90;;;;;;;;;;10203450;28;20227;-74
2022/12/21 10:51:17;;;;;;;0.67;0.60;;;;;;;;;;10203079;28;20604;-80
2022/12/21 10:56:12;;;;;;;0.60;0.60;;;;;;;;;;10203480;28;20679;-80
2022/12/21 11:01:08;;;;;;;0.73;0.70;;;;;;;;;;10202845;28;20209;-86
2022/12/21 11:06:04;;;;;;;0.70;0.63;;;;;;;;;;10202604;28;20178;-83
2022/12/21 11:11:03;;;;;;;0.80;0.60;;;;;;;;;;10202954;28;20181;-84
2022/12/21 11:15:59;;;;;;;0.80;0.70;;;;;;;;;;10202480;28;20185;-79
2022/12/21 11:20:55;;;;;;;0.80;0.70;;;;;;;;;;10201839;28;20697;-83
2022/12/21 11:25:51;;;;;;;1.27;0.70;;;;;;;;;;10201791;28;20179;-84
2022/12/21 11:30:48;;;;;;;1.30;0.80;;;;;;;;;;10201776;28;20177;-83
2022/12/21 11:35:44;;;;;;;0.90;0.70;;;;;;;;;;10201591;28;20215;-81
2022/12/21 11:40:39;;;;;;;0.80;0.70;;;;;;;;;;10202164;28;20285;-81
2022/12/21 11:45:35;;;;;;;3.90;1.00;;;;;;;;;;10202028;28;20536;-82
2022/12/21 11:50:31;;;;;;;0.87;0.70;;;;;;;;;;10201931;28;20170;-83
2022/12/21 11:55:27;;;;;;;1.97;0.90;;;;;;;;;;10201449;28;20230;-83
2022/12/21 12:00:23;;;;;;;0.97;0.70;;;;;;;;;;10201884;28;20241;-80
2022/12/21 12:05:19;;;;;;;0.70;0.70;;;;;;;;;;10201911;28;20177;-85
2022/12/21 12:10:15;;;;;;;0.73;0.63;;;;;;;;;;10199282;28;20178;-80
2022/12/21 12:15:11;;;;;;;1.00;0.80;;;;;;;;;;10199238;28;20228;-80
2022/12/21 12:20:07;;;;;;;0.80;0.80;;;;;;;;;;10200229;28;20209;-80
2022/12/21 12:25:03;;;;;;;0.73;0.73;;;;;;;;;;10201073;28;20193;-80
2022/12/21 12:29:59;;;;;;;1.40;0.73;;;;;;;;;;10200451;28;20178;-78
2022/12/21 12:34:54;;;;;;;1.10;0.80;;;;;;;;;;10205888;28;20234;-79
2022/12/21 12:39:50;;;;;;;0.60;0.60;;;;;;;;;;10208046;28;20202;-80
2022/12/21 12:44:46;;;;;;;1.33;0.80;;;;;;;;;;10207557;28;20627;-83
2022/12/21 12:49:42;;;;;;;1.03;0.77;;;;;;;;;;10208587;28;20170;-82
2022/12/21 12:54:38;;;;;;;0.90;0.77;;;;;;;;;;10206941;28;20241;-82
2022/12/21 12:59:34;;;;;;;0.93;0.90;;;;;;;;;;10206585;28;20201;-81
2022/12/21 13:04:30;;;;;;;0.73;0.70;;;;;;;;;;10206588;28;20178;-82
2022/12/21 13:09:26;;;;;;;1.17;0.87;;;;;;;;;;10207214;28;20174;-82
2022/12/21 13:14:22;;;;;;;1.03;0.90;;;;;;;;;;10205729;28;20174;-81
2022/12/21 13:19:18;;;;;;;1.57;1.20;;;;;;;;;;10206402;28;20206;-82
2022/12/21 13:24:14;;;;;;;1.27;1.07;;;;;;;;;;10200366;28;20629;-85
2022/12/21 13:29:10;;;;;;;1.90;1.10;;;;;;;;;;10187094;28;20181;-83
2022/12/21 13:34:06;;;;;;;0.97;0.90;;;;;;;;;;10205726;28;20186;-83
2022/12/21 13:39:01;;;;;;;2.23;1.10;;;;;;;;;;10206244;28;20595;-84
2022/12/21 13:43:57;;;;;;;3.40;1.03;;;;;;;;;;10205110;28;20184;-85
2022/12/21 13:48:53;;;;;;;1.10;1.00;;;;;;;;;;10205461;28;20166;-84
2022/12/21 13:53:49;;;;;;;2.37;1.30;;;;;;;;;;10205276;28;20607;-84
2022/12/21 13:58:45;;;;;;;2.07;0.77;;;;;;;;;;10204259;28;20284;-84
2022/12/21 14:03:41;;;;;;;1.20;1.10;;;;;;;;;;10204363;28;20260;-84
2022/12/21 14:08:37;;;;;;;1.30;0.90;;;;;;;;;;10205647;28;20627;-85
2022/12/21 14:13:33;;;;;;;1.47;1.33;;;;;;;;;;10205055;28;20237;-90
2022/12/21 14:18:29;;;;;;;1.87;1.33;;;;;;;;;;10204448;28;20677;-90
2022/12/21 14:23:24;;;;;;;1.20;0.90;;;;;;;;;;10204157;28;20228;-90
2022/12/21 14:28:21;;;;;;;2.30;1.27;;;;;;;;;;10203285;28;20181;-86
2022/12/21 14:33:17;;;;;;;2.00;1.00;;;;;;;;;;10203914;28;20189;-87
2022/12/21 14:38:13;;;;;;;1.37;0.90;;;;;;;;;;10203598;28;20208;-85
2022/12/21 14:43:08;;;;;;;1.40;1.30;;;;;;;;;;10202894;28;20534;-85
2022/12/21 14:48:04;;;;;;;2.47;2.07;;;;;;;;;;10202749;28;20232;-82
2022/12/21 14:53:00;;;;;;;3.20;1.67;;;;;;;;;;10203747;28;20235;-83
2022/12/21 14:57:56;;;;;;;2.30;1.63;;;;;;;;;;10202697;28;20679;-83
2022/12/21 15:02:52;;;;;;;4.87;2.87;;;;;;;;;;10202558;28;20184;-80
2022/12/21 15:07:48;;;;;;;3.03;1.73;;;;;;;;;;10203439;28;20298;-80
2022/12/21 15:12:45;;;;;;;3.97;1.50;;;;;;;;;;10202629;28;20202;-82
2022/12/21 15:17:41;;;;;;;4.30;2.00;;;;;;;;;;10201320;28;20198;-86
2022/12/21 15:22:37;;;;;;;3.30;1.50;;;;;;;;;;10202998;28;20199;-85
2022/12/21 15:27:32;;;;;;;2.60;1.77;;;;;;;;;;10202386;28;20177;-86
2022/12/21 15:32:28;;;;;;;2.00;1.57;;;;;;;;;;10202244;28;20226;-92
2022/12/21 15:37:24;;;;;;;2.03;1.40;;;;;;;;;;10193546;28;20289;-81
2022/12/21 15:42:20;;;;;;;3.53;1.70;;;;;;;;;;10200535;28;20637;-79
2022/12/21 15:47:16;;;;;;;2.53;1.70;;;;;;;;;;10201965;28;20188;-79
2022/12/21 15:52:12;;;;;;;3.30;1.67;;;;;;;;;;10202049;28;20181;-79
2022/12/21 15:57:08;;;;;;;2.80;1.87;;;;;;;;;;10200914;28;20233;-80
2022/12/21 16:02:04;;;;;;;1.40;1.30;;;;;;;;;;10201750;28;20525;-80
2022/12/21 16:06:59;;;;;;;3.80;1.70;;;;;;;;;;10203786;28;20170;-80
2022/12/21 16:11:55;;;;;;;2.90;1.80;;;;;;;;;;10208687;28;20185;-81
2022/12/21 16:16:51;;;;;;;2.10;1.90;;;;;;;;;;10209085;28;20659;-79
2022/12/21 16:21:47;;;;;;;2.33;1.77;;;;;;;;;;10208329;28;20175;-80
2022/12/21 16:26:43;;;;;;;1.60;1.50;;;;;;;;;;10208343;28;20180;-81
2022/12/21 16:31:39;;;;;;;1.73;1.27;;;;;;;;;;10207987;28;20172;-80
2022/12/21 16:36:35;;;;;;;4.27;1.80;;;;;;;;;;10208844;28;20611;-80
2022/12/21 16:41:31;;;;;;;3.10;1.50;;;;;;;;;;10207882;28;20262;-79
2022/12/21 16:46:27;;;;;;;1.93;1.50;;;;;;;;;;10208016;28;20195;-79
2022/12/21 16:51:23;;;;;;;2.03;1.40;;;;;;;;;;10207463;28;20178;-79
2022/12/21 16:56:20;;;;;;;2.07;1.80;;;;;;;;;;10206882;28;20717;-74
2022/12/21 17:01:16;;;;;;;2.50;1.37;;;;;;;;;;10207465;28;20209;-79
2022/12/21 17:06:12;;;;;;;3.07;1.40;;;;;;;;;;10206862;28;20196;-79
2022/12/21 17:11:08;;;;;;;1.53;1.43;;;;;;;;;;10206626;28;20218;-80
2022/12/21 17:16:04;;;;;;;2.90;1.27;;;;;;;;;;10206820;28;20608;-79
2022/12/21 17:21:00;;;;;;;2.47;1.33;;;;;;;;;;10205541;28;20198;-78
2022/12/21 17:25:56;;;;;;;1.57;1.47;;;;;;;;;;10205868;28;20193;-79
2022/12/21 17:30:52;;;;;;;2.10;2.00;;;;;;;;;;10205836;28;20320;-80
2022/12/21 17:35:48;;;;;;;2.00;1.40;;;;;;;;;;10205744;28;20177;-81
2022/12/21 17:40:44;;;;;;;1.33;1.20;;;;;;;;;;10205500;28;20659;-83
2022/12/21 17:45:40;;;;;;;3.63;1.37;;;;;;;;;;10205407;28;20183;-83
2022/12/21 17:50:36;;;;;;;2.03;1.40;;;;;;;;;;10204707;28;20199;-82
2022/12/21 17:55:32;;;;;;;3.80;1.57;;;;;;;;;;10205090;28;20304;-81
2022/12/21 18:00:29;;;;;;;2.10;1.53;;;;;;;;;;10204845;28;20248;-80
2022/12/21 18:05:25;;;;;;;2.50;1.30;;;;;;;;;;10204245;28;20186;-81
2022/12/21 18:10:20;;;;;;;1.53;1.30;;;;;;;;;;10203573;28;20256;-81
2022/12/21 18:15:16;;;;;;;2.30;1.50;;;;;;;;;;10203699;28;20328;-80
2022/12/21 18:20:12;;;;;;;1.77;1.20;;;;;;;;;;10202817;28;20266;-78
2022/12/21 18:25:08;;;;;;;1.40;1.30;;;;;;;;;;10203959;28;20178;-78
2022/12/21 18:30:04;;;;;;;2.13;1.93;;;;;;;;;;10204667;28;20170;-78
2022/12/21 18:35:00;;;;;;;2.17;1.50;;;;;;;;;;10203595;28;20220;-77
2022/12/21 18:39:56;;;;;;;1.63;1.37;;;;;;;;;;10203370;28;20204;-79
2022/12/21 18:44:52;;;;;;;1.33;1.23;;;;;;;;;;10203240;28;20253;-81
2022/12/21 18:49:47;;;;;;;1.80;1.50;;;;;;;;;;10203061;28;20200;-81
2022/12/21 18:54:43;;;;;;;2.60;1.30;;;;;;;;;;10202933;28;20571;-84
2022/12/21 18:59:39;;;;;;;9.93;1.37;;;;;;;;;;10203085;28;20201;-77
2022/12/21 19:04:36;;;;;;;1.33;1.13;;;;;;;;;;10202499;28;20205;-78
2022/12/21 19:09:32;;;;;;;2.20;1.30;;;;;;;;;;10202868;28;20181;-78
2022/12/21 19:14:28;;;;;;;2.60;1.77;;;;;;;;;;10202653;28;20187;-78
2022/12/21 19:19:24;;;;;;;1.63;1.23;;;;;;;;;;10203018;28;20293;-78
2022/12/21 19:24:20;;;;;;;3.97;1.30;;;;;;;;;;10202585;28;20178;-78
2022/12/21 19:29:16;;;;;;;1.53;1.33;;;;;;;;;;10202393;28;20178;-78
2022/12/21 19:34:12;;;;;;;3.00;1.63;;;;;;;;;;10202450;28;20198;-78
2022/12/21 19:39:08;;;;;;;1.30;1.00;;;;;;;;;;10202216;28;20204;-78
2022/12/21 19:44:03;;;;;;;1.70;1.40;;;;;;;;;;10207550;28;20177;-78
2022/12/21 19:48:59;;;;;;;1.90;1.00;;;;;;;;;;10210121;28;20641;-78
2022/12/21 19:53:55;;;;;;;1.20;1.10;;;;;;;;;;10210284;28;20209;-83
2022/12/21 19:58:51;;;;;;;1.70;1.10;;;;;;;;;;10210137;28;20226;-81
2022/12/21 20:03:47;;;;;;;3.07;2.33;;;;;;;;;;10207269;28;20178;-74
2022/12/21 20:08:43;;;;;;;4.23;1.10;;;;;;;;;;10208369;28;20178;-73
2022/12/21 20:13:39;;;;;;;4.77;1.37;;;;;;;;;;10209089;28;20192;-73
2022/12/21 20:18:35;;;;;;;1.57;1.17;;;;;;;;;;10208200;28;20315;-73
2022/12/21 20:23:30;;;;;;;1.77;1.23;;;;;;;;;;10208040;28;20253;-73
2022/12/21 20:28:26;;;;;;;1.33;1.10;;;;;;;;;;10207874;28;20701;-73
2022/12/21 20:33:22;;;;;;;1.30;1.20;;;;;;;;;;10208208;28;20270;-73
2022/12/21 20:38:18;;;;;;;2.10;1.40;;;;;;;;;;10208123;28;20206;-73
2022/12/21 20:48:29;;;;;;;1.00;0.90;;;;;;;;;;10207332;28;20151;-73
2022/12/21 20:53:24;;;;;;;2.00;1.13;;;;;;;;;;10206889;28;20611;-73
2022/12/21 20:58:20;;;;;;;1.63;0.90;;;;;;;;;;10207626;28;20279;-73
2022/12/21 21:03:17;;;;;;;1.73;0.97;;;;;;;;;;10207145;28;20178;-73
2022/12/21 21:08:13;;;;;;;1.20;1.07;;;;;;;;;;10207117;28;20255;-73
2022/12/21 21:13:09;;;;;;;0.90;0.80;;;;;;;;;;10206666;28;20178;-73
2022/12/21 21:18:05;;;;;;;1.73;0.83;;;;;;;;;;10206560;28;20251;-73
2022/12/21 21:23:01;;;;;;;1.53;1.10;;;;;;;;;;10206366;28;20177;-73
2022/12/21 21:27:57;;;;;;;1.07;0.80;;;;;;;;;;10206290;28;20178;-73
2022/12/21 21:32:53;;;;;;;1.30;1.20;;;;;;;;;;10205748;28;20177;-73
2022/12/21 21:43:03;;;;;;;1.13;1.00;;;;;;;;;;10205148;28;20173;-73
2022/12/21 21:47:59;;;;;;;1.30;1.17;;;;;;;;;;10205342;28;20261;-73
2022/12/21 21:52:55;;;;;;;1.67;1.10;;;;;;;;;;10205757;28;20208;-73
2022/12/21 21:57:52;;;;;;;0.83;0.83;;;;;;;;;;10205350;28;20225;-73
2022/12/21 22:02:47;;;;;;;1.57;1.00;;;;;;;;;;10204799;28;20178;-73
2022/12/21 22:07:43;;;;;;;1.73;1.23;;;;;;;;;;10204422;28;20174;-76
2022/12/21 22:12:40;;;;;;;1.23;1.07;;;;;;;;;;10204439;28;20540;-76
2022/12/21 22:17:35;;;;;;;1.27;1.10;;;;;;;;;;10203822;28;20230;-76
2022/12/21 22:33:01;;;;;;;1.00;0.90;;;;;;;;;;10203314;28;20158;-73
2022/12/21 22:43:11;;;;;;;0.90;0.80;;;;;;;;;;10203174;28;20156;-71
2022/12/21 22:48:07;;;;;;;1.00;0.90;;;;;;;;;;10203524;28;20249;-72
2022/12/21 22:53:03;;;;;;;1.20;0.90;;;;;;;;;;10202792;28;20177;-71
2022/12/21 22:57:58;;;;;;;1.43;1.00;;;;;;;;;;10202371;28;20578;-72
2022/12/21 23:02:54;;;;;;;0.87;0.87;;;;;;;;;;10203083;28;20260;-72
2022/12/21 23:07:50;;;;;;;0.80;0.80;;;;;;;;;;10202342;28;20174;-72
2022/12/21 23:28:30;;;;;;;0.90;0.80;;;;;;;;;;10203227;28;20174;-73
2022/12/21 23:44:00;;;;;;;1.20;1.03;;;;;;;;;;10200733;28;20216;-75
